sensor_id;sensor_type;location;lat;lon;timestamp;P1;durP1;ratioP1;P2;durP2;ratioP2
15603;SDS011;7902;49.042;9.092;2023-11-18T00:01:17;12.00;;;2.37;;
15603;SDS011;7902;49.042;9.092;2023-11-18T00:03:43;11.13;;;2.13;;
15603;SDS011;7902;49.042;9.092;2023-11-18T00:06:08;11.17;;;2.17;;
15603;SDS011;7902;49.042;9.092;2023-11-18T00:08:34;11.70;;;2.27;;
15603;SDS011;7902;49.042;9.092;2023-11-18T00:11:01;13.57;;;2.30;;
15603;SDS011;7902;49.042;9.092;2023-11-18T00:13:27;12.77;;;2.60;;
15603;SDS011;7902;49.042;9.092;2023-11-18T00:15:53;13.40;;;2.40;;
15603;SDS011;7902;49.042;9.092;2023-11-18T00:18:19;11.30;;;2.20;;
15603;SDS011;7902;49.042;9.092;2023-11-18T00:20:45;14.97;;;2.63;;
15603;SDS011;7902;49.042;9.092;2023-11-18T00:23:11;13.03;;;3.07;;
15603;SDS011;7902;49.042;9.092;2023-11-18T00:25:37;16.53;;;2.60;;
15603;SDS011;7902;49.042;9.092;2023-11-18T00:28:05;12.60;;;3.17;;
15603;SDS011;7902;49.042;9.092;2023-11-18T00:30:33;13.50;;;3.20;;
15603;SDS011;7902;49.042;9.092;2023-11-18T00:32:59;12.93;;;3.13;;
15603;SDS011;7902;49.042;9.092;2023-11-18T00:35:25;15.73;;;3.00;;
15603;SDS011;7902;49.042;9.092;2023-11-18T00:37:51;14.27;;;3.17;;
15603;SDS011;7902;49.042;9.092;2023-11-18T00:40:17;15.57;;;3.30;;
15603;SDS011;7902;49.042;9.092;2023-11-18T00:42:45;12.20;;;2.83;;
15603;SDS011;7902;49.042;9.092;2023-11-18T00:45:11;14.90;;;3.67;;
15603;SDS011;7902;49.042;9.092;2023-11-18T00:47:40;13.60;;;3.57;;
15603;SDS011;7902;49.042;9.092;2023-11-18T00:50:07;12.17;;;2.80;;
15603;SDS011;7902;49.042;9.092;2023-11-18T00:52:36;13.00;;;3.10;;
15603;SDS011;7902;49.042;9.092;2023-11-18T00:55:07;12.40;;;2.80;;
15603;SDS011;7902;49.042;9.092;2023-11-18T00:57:34;20.03;;;3.60;;
15603;SDS011;7902;49.042;9.092;2023-11-18T01:00:00;12.60;;;2.93;;
15603;SDS011;7902;49.042;9.092;2023-11-18T01:02:26;13.37;;;3.53;;
15603;SDS011;7902;49.042;9.092;2023-11-18T01:04:53;19.40;;;4.07;;
15603;SDS011;7902;49.042;9.092;2023-11-18T01:07:19;13.80;;;4.07;;
15603;SDS011;7902;49.042;9.092;2023-11-18T01:09:45;13.30;;;4.00;;
15603;SDS011;7902;49.042;9.092;2023-11-18T01:12:11;14.27;;;4.30;;
15603;SDS011;7902;49.042;9.092;2023-11-18T01:14:37;14.60;;;4.30;;
15603;SDS011;7902;49.042;9.092;2023-11-18T01:17:04;16.03;;;5.07;;
15603;SDS011;7902;49.042;9.092;2023-11-18T01:19:31;15.77;;;5.00;;
15603;SDS011;7902;49.042;9.092;2023-11-18T01:21:57;21.03;;;5.30;;
15603;SDS011;7902;49.042;9.092;2023-11-18T01:24:23;16.80;;;4.43;;
15603;SDS011;7902;49.042;9.092;2023-11-18T01:26:49;15.63;;;5.33;;
15603;SDS011;7902;49.042;9.092;2023-11-18T01:29:14;14.70;;;4.93;;
15603;SDS011;7902;49.042;9.092;2023-11-18T01:31:40;14.60;;;5.17;;
15603;SDS011;7902;49.042;9.092;2023-11-18T01:34:07;15.10;;;4.83;;
15603;SDS011;7902;49.042;9.092;2023-11-18T01:36:37;13.80;;;4.77;;
15603;SDS011;7902;49.042;9.092;2023-11-18T01:39:03;15.03;;;4.90;;
15603;SDS011;7902;49.042;9.092;2023-11-18T01:41:30;18.57;;;5.10;;
15603;SDS011;7902;49.042;9.092;2023-11-18T01:43:58;16.20;;;5.57;;
15603;SDS011;7902;49.042;9.092;2023-11-18T01:46:24;15.17;;;5.10;;
15603;SDS011;7902;49.042;9.092;2023-11-18T01:48:51;13.63;;;4.60;;
15603;SDS011;7902;49.042;9.092;2023-11-18T01:51:18;17.20;;;5.60;;
15603;SDS011;7902;49.042;9.092;2023-11-18T01:53:45;15.17;;;5.03;;
15603;SDS011;7902;49.042;9.092;2023-11-18T01:56:13;14.60;;;4.70;;
15603;SDS011;7902;49.042;9.092;2023-11-18T01:58:40;14.23;;;4.70;;
15603;SDS011;7902;49.042;9.092;2023-11-18T02:01:06;16.20;;;5.30;;
15603;SDS011;7902;49.042;9.092;2023-11-18T02:03:34;17.37;;;5.30;;
15603;SDS011;7902;49.042;9.092;2023-11-18T02:06:01;15.13;;;5.77;;
15603;SDS011;7902;49.042;9.092;2023-11-18T02:08:30;15.23;;;5.80;;
15603;SDS011;7902;49.042;9.092;2023-11-18T02:10:58;19.53;;;5.97;;
15603;SDS011;7902;49.042;9.092;2023-11-18T02:13:37;16.60;;;5.90;;
15603;SDS011;7902;49.042;9.092;2023-11-18T02:16:06;17.70;;;6.83;;
15603;SDS011;7902;49.042;9.092;2023-11-18T02:18:34;15.30;;;5.97;;
15603;SDS011;7902;49.042;9.092;2023-11-18T02:21:05;15.20;;;5.50;;
15603;SDS011;7902;49.042;9.092;2023-11-18T02:23:33;19.13;;;6.30;;
15603;SDS011;7902;49.042;9.092;2023-11-18T02:25:59;15.13;;;5.43;;
15603;SDS011;7902;49.042;9.092;2023-11-18T02:28:27;15.83;;;5.67;;
15603;SDS011;7902;49.042;9.092;2023-11-18T02:30:59;15.93;;;5.50;;
15603;SDS011;7902;49.042;9.092;2023-11-18T02:33:34;15.97;;;4.57;;
15603;SDS011;7902;49.042;9.092;2023-11-18T02:36:09;15.33;;;6.00;;
15603;SDS011;7902;49.042;9.092;2023-11-18T02:38:42;16.10;;;5.70;;
15603;SDS011;7902;49.042;9.092;2023-11-18T02:41:12;15.00;;;5.80;;
15603;SDS011;7902;49.042;9.092;2023-11-18T02:43:39;16.60;;;5.90;;
15603;SDS011;7902;49.042;9.092;2023-11-18T02:46:08;15.10;;;6.30;;
15603;SDS011;7902;49.042;9.092;2023-11-18T02:48:38;20.60;;;6.53;;
15603;SDS011;7902;49.042;9.092;2023-11-18T02:51:07;16.63;;;6.33;;
15603;SDS011;7902;49.042;9.092;2023-11-18T02:53:33;18.10;;;7.60;;
15603;SDS011;7902;49.042;9.092;2023-11-18T02:56:00;21.13;;;7.67;;
15603;SDS011;7902;49.042;9.092;2023-11-18T02:58:30;18.73;;;6.60;;
15603;SDS011;7902;49.042;9.092;2023-11-18T03:00:56;20.20;;;7.70;;
15603;SDS011;7902;49.042;9.092;2023-11-18T03:03:25;19.50;;;6.90;;
15603;SDS011;7902;49.042;9.092;2023-11-18T03:05:52;17.80;;;7.27;;
15603;SDS011;7902;49.042;9.092;2023-11-18T03:08:18;20.00;;;7.20;;
15603;SDS011;7902;49.042;9.092;2023-11-18T03:10:44;18.67;;;7.93;;
15603;SDS011;7902;49.042;9.092;2023-11-18T03:13:10;16.97;;;7.00;;
15603;SDS011;7902;49.042;9.092;2023-11-18T03:15:37;17.00;;;7.23;;
15603;SDS011;7902;49.042;9.092;2023-11-18T03:18:03;17.73;;;7.23;;
15603;SDS011;7902;49.042;9.092;2023-11-18T03:20:31;16.60;;;7.50;;
15603;SDS011;7902;49.042;9.092;2023-11-18T03:22:59;19.17;;;7.73;;
15603;SDS011;7902;49.042;9.092;2023-11-18T03:25:28;22.30;;;7.40;;
15603;SDS011;7902;49.042;9.092;2023-11-18T03:27:54;20.23;;;9.10;;
15603;SDS011;7902;49.042;9.092;2023-11-18T03:30:20;31.77;;;8.20;;
15603;SDS011;7902;49.042;9.092;2023-11-18T03:32:46;24.73;;;9.37;;
15603;SDS011;7902;49.042;9.092;2023-11-18T03:35:12;20.07;;;8.03;;
15603;SDS011;7902;49.042;9.092;2023-11-18T03:37:39;17.63;;;7.70;;
15603;SDS011;7902;49.042;9.092;2023-11-18T03:40:07;21.60;;;9.73;;
15603;SDS011;7902;49.042;9.092;2023-11-18T03:42:34;23.30;;;9.03;;
15603;SDS011;7902;49.042;9.092;2023-11-18T03:45:01;37.53;;;10.03;;
15603;SDS011;7902;49.042;9.092;2023-11-18T03:47:27;25.00;;;10.40;;
15603;SDS011;7902;49.042;9.092;2023-11-18T03:49:53;23.40;;;9.73;;
15603;SDS011;7902;49.042;9.092;2023-11-18T03:52:21;21.80;;;8.77;;
15603;SDS011;7902;49.042;9.092;2023-11-18T03:54:47;24.27;;;9.90;;
15603;SDS011;7902;49.042;9.092;2023-11-18T03:57:13;21.03;;;8.33;;
15603;SDS011;7902;49.042;9.092;2023-11-18T03:59:39;22.73;;;9.67;;
15603;SDS011;7902;49.042;9.092;2023-11-18T04:02:06;29.67;;;9.77;;
15603;SDS011;7902;49.042;9.092;2023-11-18T04:04:33;20.70;;;8.97;;
15603;SDS011;7902;49.042;9.092;2023-11-18T04:06:59;24.73;;;9.83;;
15603;SDS011;7902;49.042;9.092;2023-11-18T04:09:27;20.33;;;8.57;;
15603;SDS011;7902;49.042;9.092;2023-11-18T04:11:53;23.40;;;9.70;;
15603;SDS011;7902;49.042;9.092;2023-11-18T04:14:19;28.33;;;11.90;;
15603;SDS011;7902;49.042;9.092;2023-11-18T04:16:47;25.33;;;10.97;;
15603;SDS011;7902;49.042;9.092;2023-11-18T04:19:13;30.03;;;11.20;;
15603;SDS011;7902;49.042;9.092;2023-11-18T04:21:39;31.23;;;11.40;;
15603;SDS011;7902;49.042;9.092;2023-11-18T04:24:05;27.30;;;10.43;;
15603;SDS011;7902;49.042;9.092;2023-11-18T04:26:31;23.00;;;9.87;;
15603;SDS011;7902;49.042;9.092;2023-11-18T04:28:57;21.23;;;8.90;;
15603;SDS011;7902;49.042;9.092;2023-11-18T04:31:24;22.63;;;8.77;;
15603;SDS011;7902;49.042;9.092;2023-11-18T04:33:50;20.63;;;8.73;;
15603;SDS011;7902;49.042;9.092;2023-11-18T04:36:16;24.53;;;10.50;;
15603;SDS011;7902;49.042;9.092;2023-11-18T04:38:42;23.10;;;9.80;;
15603;SDS011;7902;49.042;9.092;2023-11-18T04:41:11;19.70;;;9.27;;
15603;SDS011;7902;49.042;9.092;2023-11-18T04:43:37;24.30;;;9.73;;
15603;SDS011;7902;49.042;9.092;2023-11-18T04:46:05;20.70;;;9.47;;
15603;SDS011;7902;49.042;9.092;2023-11-18T04:48:31;18.80;;;9.00;;
15603;SDS011;7902;49.042;9.092;2023-11-18T04:50:58;20.17;;;8.70;;
15603;SDS011;7902;49.042;9.092;2023-11-18T04:53:24;21.10;;;8.00;;
15603;SDS011;7902;49.042;9.092;2023-11-18T04:55:51;19.50;;;8.80;;
15603;SDS011;7902;49.042;9.092;2023-11-18T04:58:17;21.20;;;9.40;;
15603;SDS011;7902;49.042;9.092;2023-11-18T05:00:43;22.10;;;8.93;;
15603;SDS011;7902;49.042;9.092;2023-11-18T05:03:09;20.30;;;8.90;;
15603;SDS011;7902;49.042;9.092;2023-11-18T05:05:35;20.87;;;8.40;;
15603;SDS011;7902;49.042;9.092;2023-11-18T05:08:05;18.20;;;8.23;;
15603;SDS011;7902;49.042;9.092;2023-11-18T05:10:32;21.67;;;8.00;;
15603;SDS011;7902;49.042;9.092;2023-11-18T05:12:59;19.13;;;7.60;;
15603;SDS011;7902;49.042;9.092;2023-11-18T05:15:25;22.93;;;8.17;;
15603;SDS011;7902;49.042;9.092;2023-11-18T05:17:51;19.10;;;8.03;;
15603;SDS011;7902;49.042;9.092;2023-11-18T05:20:19;19.93;;;8.37;;
15603;SDS011;7902;49.042;9.092;2023-11-18T05:22:45;21.80;;;8.60;;
15603;SDS011;7902;49.042;9.092;2023-11-18T05:25:11;21.73;;;8.03;;
15603;SDS011;7902;49.042;9.092;2023-11-18T05:27:38;19.40;;;8.00;;
15603;SDS011;7902;49.042;9.092;2023-11-18T05:30:08;20.73;;;7.93;;
15603;SDS011;7902;49.042;9.092;2023-11-18T05:32:35;18.10;;;7.77;;
15603;SDS011;7902;49.042;9.092;2023-11-18T05:35:01;17.83;;;6.77;;
15603;SDS011;7902;49.042;9.092;2023-11-18T05:37:30;22.63;;;7.70;;
15603;SDS011;7902;49.042;9.092;2023-11-18T05:40:03;18.07;;;7.40;;
15603;SDS011;7902;49.042;9.092;2023-11-18T05:42:33;21.73;;;7.37;;
15603;SDS011;7902;49.042;9.092;2023-11-18T05:45:03;19.93;;;7.73;;
15603;SDS011;7902;49.042;9.092;2023-11-18T05:47:30;17.67;;;6.40;;
15603;SDS011;7902;49.042;9.092;2023-11-18T05:49:56;16.70;;;6.57;;
15603;SDS011;7902;49.042;9.092;2023-11-18T05:52:22;18.17;;;7.13;;
15603;SDS011;7902;49.042;9.092;2023-11-18T05:54:48;17.40;;;6.90;;
15603;SDS011;7902;49.042;9.092;2023-11-18T05:57:14;17.67;;;7.03;;
15603;SDS011;7902;49.042;9.092;2023-11-18T05:59:41;17.23;;;5.80;;
15603;SDS011;7902;49.042;9.092;2023-11-18T06:02:07;17.80;;;6.50;;
15603;SDS011;7902;49.042;9.092;2023-11-18T06:04:33;15.97;;;6.40;;
15603;SDS011;7902;49.042;9.092;2023-11-18T06:07:00;17.30;;;7.87;;
15603;SDS011;7902;49.042;9.092;2023-11-18T06:09:28;16.33;;;6.20;;
15603;SDS011;7902;49.042;9.092;2023-11-18T06:11:54;20.57;;;6.97;;
15603;SDS011;7902;49.042;9.092;2023-11-18T06:14:20;16.13;;;6.60;;
15603;SDS011;7902;49.042;9.092;2023-11-18T06:16:47;29.33;;;8.13;;
15603;SDS011;7902;49.042;9.092;2023-11-18T06:19:13;20.23;;;7.87;;
15603;SDS011;7902;49.042;9.092;2023-11-18T06:21:40;19.77;;;7.93;;
15603;SDS011;7902;49.042;9.092;2023-11-18T06:24:06;20.93;;;8.37;;
15603;SDS011;7902;49.042;9.092;2023-11-18T06:26:32;19.80;;;9.00;;
15603;SDS011;7902;49.042;9.092;2023-11-18T06:29:01;15.90;;;6.33;;
15603;SDS011;7902;49.042;9.092;2023-11-18T06:31:27;19.10;;;5.67;;
15603;SDS011;7902;49.042;9.092;2023-11-18T06:33:54;17.97;;;8.13;;
15603;SDS011;7902;49.042;9.092;2023-11-18T06:36:21;16.37;;;6.60;;
15603;SDS011;7902;49.042;9.092;2023-11-18T06:38:48;18.03;;;6.80;;
15603;SDS011;7902;49.042;9.092;2023-11-18T06:41:16;16.63;;;5.60;;
15603;SDS011;7902;49.042;9.092;2023-11-18T06:43:44;26.03;;;8.93;;
15603;SDS011;7902;49.042;9.092;2023-11-18T06:46:18;24.40;;;10.50;;
15603;SDS011;7902;49.042;9.092;2023-11-18T06:48:49;24.70;;;11.80;;
15603;SDS011;7902;49.042;9.092;2023-11-18T06:51:23;25.70;;;12.37;;
15603;SDS011;7902;49.042;9.092;2023-11-18T06:53:50;19.90;;;8.10;;
15603;SDS011;7902;49.042;9.092;2023-11-18T06:56:25;22.40;;;9.70;;
15603;SDS011;7902;49.042;9.092;2023-11-18T06:58:52;25.63;;;11.40;;
15603;SDS011;7902;49.042;9.092;2023-11-18T07:01:18;28.70;;;13.40;;
15603;SDS011;7902;49.042;9.092;2023-11-18T07:03:45;23.63;;;10.63;;
15603;SDS011;7902;49.042;9.092;2023-11-18T07:06:17;26.00;;;12.67;;
15603;SDS011;7902;49.042;9.092;2023-11-18T07:08:48;19.67;;;7.93;;
15603;SDS011;7902;49.042;9.092;2023-11-18T07:11:17;15.37;;;6.07;;
15603;SDS011;7902;49.042;9.092;2023-11-18T07:13:44;14.83;;;5.40;;
15603;SDS011;7902;49.042;9.092;2023-11-18T07:16:11;14.13;;;4.60;;
15603;SDS011;7902;49.042;9.092;2023-11-18T07:18:38;19.67;;;5.93;;
15603;SDS011;7902;49.042;9.092;2023-11-18T07:21:04;16.10;;;5.63;;
15603;SDS011;7902;49.042;9.092;2023-11-18T07:23:33;17.33;;;6.43;;
15603;SDS011;7902;49.042;9.092;2023-11-18T07:25:59;14.43;;;5.10;;
15603;SDS011;7902;49.042;9.092;2023-11-18T07:28:26;15.30;;;5.40;;
15603;SDS011;7902;49.042;9.092;2023-11-18T07:30:52;13.20;;;4.27;;
15603;SDS011;7902;49.042;9.092;2023-11-18T07:33:19;13.70;;;4.23;;
15603;SDS011;7902;49.042;9.092;2023-11-18T07:35:47;13.70;;;4.77;;
15603;SDS011;7902;49.042;9.092;2023-11-18T07:38:18;13.03;;;3.77;;
15603;SDS011;7902;49.042;9.092;2023-11-18T07:40:45;17.53;;;3.47;;
15603;SDS011;7902;49.042;9.092;2023-11-18T07:43:12;14.20;;;3.70;;
15603;SDS011;7902;49.042;9.092;2023-11-18T07:45:38;16.07;;;4.00;;
15603;SDS011;7902;49.042;9.092;2023-11-18T07:48:06;13.30;;;3.33;;
15603;SDS011;7902;49.042;9.092;2023-11-18T07:50:33;12.80;;;3.50;;
15603;SDS011;7902;49.042;9.092;2023-11-18T07:53:00;11.87;;;3.13;;
15603;SDS011;7902;49.042;9.092;2023-11-18T07:55:27;12.33;;;2.97;;
15603;SDS011;7902;49.042;9.092;2023-11-18T07:57:54;12.70;;;3.83;;
15603;SDS011;7902;49.042;9.092;2023-11-18T08:00:20;14.93;;;4.53;;
15603;SDS011;7902;49.042;9.092;2023-11-18T08:02:46;12.83;;;3.63;;
15603;SDS011;7902;49.042;9.092;2023-11-18T08:05:12;20.83;;;10.07;;
15603;SDS011;7902;49.042;9.092;2023-11-18T08:07:42;14.10;;;3.53;;
15603;SDS011;7902;49.042;9.092;2023-11-18T08:10:09;13.77;;;3.73;;
15603;SDS011;7902;49.042;9.092;2023-11-18T08:12:39;12.40;;;3.50;;
15603;SDS011;7902;49.042;9.092;2023-11-18T08:15:05;12.63;;;2.93;;
15603;SDS011;7902;49.042;9.092;2023-11-18T08:17:32;13.67;;;3.27;;
15603;SDS011;7902;49.042;9.092;2023-11-18T08:19:59;12.63;;;3.10;;
15603;SDS011;7902;49.042;9.092;2023-11-18T08:22:25;11.70;;;2.50;;
15603;SDS011;7902;49.042;9.092;2023-11-18T08:24:51;12.10;;;2.40;;
15603;SDS011;7902;49.042;9.092;2023-11-18T08:27:17;14.27;;;3.10;;
15603;SDS011;7902;49.042;9.092;2023-11-18T08:29:43;11.77;;;2.73;;
15603;SDS011;7902;49.042;9.092;2023-11-18T08:32:09;13.10;;;2.90;;
15603;SDS011;7902;49.042;9.092;2023-11-18T08:34:35;12.80;;;3.60;;
15603;SDS011;7902;49.042;9.092;2023-11-18T08:37:03;13.10;;;3.17;;
15603;SDS011;7902;49.042;9.092;2023-11-18T08:39:30;11.87;;;2.57;;
15603;SDS011;7902;49.042;9.092;2023-11-18T08:41:56;11.20;;;2.70;;
15603;SDS011;7902;49.042;9.092;2023-11-18T08:44:22;16.40;;;3.07;;
15603;SDS011;7902;49.042;9.092;2023-11-18T08:46:49;11.80;;;2.63;;
15603;SDS011;7902;49.042;9.092;2023-11-18T08:49:20;17.27;;;2.40;;
15603;SDS011;7902;49.042;9.092;2023-11-18T08:51:47;12.97;;;2.70;;
15603;SDS011;7902;49.042;9.092;2023-11-18T08:54:15;11.80;;;2.33;;
15603;SDS011;7902;49.042;9.092;2023-11-18T08:56:51;10.97;;;2.27;;
15603;SDS011;7902;49.042;9.092;2023-11-18T08:59:18;11.57;;;2.30;;
15603;SDS011;7902;49.042;9.092;2023-11-18T09:01:53;16.77;;;4.00;;
15603;SDS011;7902;49.042;9.092;2023-11-18T09:04:25;11.40;;;2.40;;
15603;SDS011;7902;49.042;9.092;2023-11-18T09:06:51;11.30;;;2.50;;
15603;SDS011;7902;49.042;9.092;2023-11-18T09:09:25;12.17;;;2.60;;
15603;SDS011;7902;49.042;9.092;2023-11-18T09:11:54;22.40;;;1.87;;
15603;SDS011;7902;49.042;9.092;2023-11-18T09:14:24;13.30;;;2.07;;
15603;SDS011;7902;49.042;9.092;2023-11-18T09:16:51;11.50;;;2.30;;
15603;SDS011;7902;49.042;9.092;2023-11-18T09:19:17;11.40;;;2.00;;
15603;SDS011;7902;49.042;9.092;2023-11-18T09:21:47;11.63;;;2.30;;
15603;SDS011;7902;49.042;9.092;2023-11-18T09:24:17;11.60;;;2.00;;
15603;SDS011;7902;49.042;9.092;2023-11-18T09:26:45;16.63;;;3.07;;
15603;SDS011;7902;49.042;9.092;2023-11-18T09:29:16;11.37;;;2.07;;
15603;SDS011;7902;49.042;9.092;2023-11-18T09:31:45;21.30;;;2.43;;
15603;SDS011;7902;49.042;9.092;2023-11-18T09:34:18;12.40;;;2.37;;
15603;SDS011;7902;49.042;9.092;2023-11-18T09:36:53;12.53;;;2.17;;
15603;SDS011;7902;49.042;9.092;2023-11-18T09:39:20;17.20;;;2.47;;
15603;SDS011;7902;49.042;9.092;2023-11-18T09:42:03;11.47;;;2.07;;
15603;SDS011;7902;49.042;9.092;2023-11-18T09:44:35;11.33;;;1.77;;
15603;SDS011;7902;49.042;9.092;2023-11-18T09:47:03;13.37;;;2.17;;
15603;SDS011;7902;49.042;9.092;2023-11-18T09:49:37;12.10;;;1.67;;
15603;SDS011;7902;49.042;9.092;2023-11-18T09:52:09;12.20;;;2.10;;
15603;SDS011;7902;49.042;9.092;2023-11-18T09:54:59;14.60;;;2.40;;
15603;SDS011;7902;49.042;9.092;2023-11-18T09:57:32;14.90;;;2.03;;
15603;SDS011;7902;49.042;9.092;2023-11-18T10:00:08;18.70;;;2.07;;
15603;SDS011;7902;49.042;9.092;2023-11-18T10:02:45;14.67;;;1.80;;
15603;SDS011;7902;49.042;9.092;2023-11-18T10:05:16;17.63;;;1.70;;
15603;SDS011;7902;49.042;9.092;2023-11-18T10:07:46;11.93;;;1.93;;
15603;SDS011;7902;49.042;9.092;2023-11-18T10:10:13;12.20;;;2.00;;
15603;SDS011;7902;49.042;9.092;2023-11-18T10:12:44;16.70;;;1.93;;
15603;SDS011;7902;49.042;9.092;2023-11-18T10:15:13;11.10;;;1.50;;
15603;SDS011;7902;49.042;9.092;2023-11-18T10:17:43;12.57;;;1.77;;
15603;SDS011;7902;49.042;9.092;2023-11-18T10:20:43;17.50;;;2.80;;
15603;SDS011;7902;49.042;9.092;2023-11-18T10:23:10;21.20;;;6.63;;
15603;SDS011;7902;49.042;9.092;2023-11-18T10:25:58;17.63;;;2.37;;
15603;SDS011;7902;49.042;9.092;2023-11-18T10:30:53;12.83;;;2.07;;
15603;SDS011;7902;49.042;9.092;2023-11-18T10:33:24;14.57;;;1.90;;
15603;SDS011;7902;49.042;9.092;2023-11-18T10:35:56;18.30;;;2.40;;
15603;SDS011;7902;49.042;9.092;2023-11-18T10:38:23;13.13;;;1.70;;
15603;SDS011;7902;49.042;9.092;2023-11-18T10:40:54;13.70;;;2.50;;
15603;SDS011;7902;49.042;9.092;2023-11-18T10:43:21;23.67;;;2.03;;
15603;SDS011;7902;49.042;9.092;2023-11-18T10:45:50;12.93;;;1.90;;
15603;SDS011;7902;49.042;9.092;2023-11-18T10:48:18;14.40;;;1.83;;
15603;SDS011;7902;49.042;9.092;2023-11-18T10:50:46;14.60;;;2.10;;
15603;SDS011;7902;49.042;9.092;2023-11-18T10:53:16;16.17;;;2.70;;
15603;SDS011;7902;49.042;9.092;2023-11-18T10:55:44;15.10;;;2.60;;
15603;SDS011;7902;49.042;9.092;2023-11-18T10:58:10;14.67;;;1.93;;
15603;SDS011;7902;49.042;9.092;2023-11-18T11:00:46;19.03;;;3.27;;
15603;SDS011;7902;49.042;9.092;2023-11-18T11:03:14;12.80;;;2.03;;
15603;SDS011;7902;49.042;9.092;2023-11-18T11:05:40;12.07;;;1.70;;
15603;SDS011;7902;49.042;9.092;2023-11-18T11:08:08;12.03;;;1.77;;
15603;SDS011;7902;49.042;9.092;2023-11-18T11:10:34;15.23;;;2.30;;
15603;SDS011;7902;49.042;9.092;2023-11-18T11:13:01;16.60;;;2.40;;
15603;SDS011;7902;49.042;9.092;2023-11-18T11:15:31;18.53;;;1.80;;
15603;SDS011;7902;49.042;9.092;2023-11-18T11:17:58;12.80;;;1.73;;
15603;SDS011;7902;49.042;9.092;2023-11-18T11:20:34;19.00;;;2.00;;
15603;SDS011;7902;49.042;9.092;2023-11-18T11:23:21;14.33;;;2.23;;
15603;SDS011;7902;49.042;9.092;2023-11-18T11:29:23;14.23;;;1.83;;
15603;SDS011;7902;49.042;9.092;2023-11-18T11:31:39;13.83;;;1.60;;
15603;SDS011;7902;49.042;9.092;2023-11-18T11:34:14;13.67;;;1.80;;
15603;SDS011;7902;49.042;9.092;2023-11-18T11:36:46;13.10;;;1.73;;
15603;SDS011;7902;49.042;9.092;2023-11-18T11:39:14;16.30;;;2.50;;
15603;SDS011;7902;49.042;9.092;2023-11-18T11:41:45;13.33;;;1.53;;
15603;SDS011;7902;49.042;9.092;2023-11-18T11:44:12;12.50;;;1.47;;
15603;SDS011;7902;49.042;9.092;2023-11-18T11:46:39;12.07;;;1.50;;
15603;SDS011;7902;49.042;9.092;2023-11-18T11:49:08;12.23;;;1.63;;
15603;SDS011;7902;49.042;9.092;2023-11-18T11:51:47;12.40;;;1.60;;
15603;SDS011;7902;49.042;9.092;2023-11-18T11:54:16;14.10;;;2.20;;
15603;SDS011;7902;49.042;9.092;2023-11-18T11:56:46;14.17;;;1.60;;
15603;SDS011;7902;49.042;9.092;2023-11-18T11:59:15;16.70;;;2.63;;
15603;SDS011;7902;49.042;9.092;2023-11-18T12:01:41;14.50;;;1.53;;
15603;SDS011;7902;49.042;9.092;2023-11-18T12:04:14;13.50;;;2.13;;
15603;SDS011;7902;49.042;9.092;2023-11-18T12:06:47;13.07;;;1.70;;
15603;SDS011;7902;49.042;9.092;2023-11-18T12:09:14;20.43;;;2.00;;
15603;SDS011;7902;49.042;9.092;2023-11-18T12:11:45;18.63;;;3.07;;
15603;SDS011;7902;49.042;9.092;2023-11-18T12:14:15;18.47;;;2.83;;
15603;SDS011;7902;49.042;9.092;2023-11-18T12:17:03;17.37;;;2.70;;
15603;SDS011;7902;49.042;9.092;2023-11-18T12:19:37;17.20;;;2.70;;
15603;SDS011;7902;49.042;9.092;2023-11-18T12:22:17;16.03;;;2.30;;
15603;SDS011;7902;49.042;9.092;2023-11-18T12:30:50;14.97;;;2.10;;
15603;SDS011;7902;49.042;9.092;2023-11-18T12:35:25;16.67;;;2.00;;
15603;SDS011;7902;49.042;9.092;2023-11-18T12:38:05;14.73;;;2.20;;
15603;SDS011;7902;49.042;9.092;2023-11-18T12:40:52;15.07;;;2.40;;
15603;SDS011;7902;49.042;9.092;2023-11-18T12:43:46;13.60;;;2.57;;
15603;SDS011;7902;49.042;9.092;2023-11-18T12:46:36;13.20;;;2.03;;
15603;SDS011;7902;49.042;9.092;2023-11-18T12:49:15;13.10;;;2.30;;
15603;SDS011;7902;49.042;9.092;2023-11-18T12:51:42;17.73;;;2.50;;
15603;SDS011;7902;49.042;9.092;2023-11-18T12:54:10;14.87;;;2.03;;
15603;SDS011;7902;49.042;9.092;2023-11-18T12:56:37;12.60;;;2.00;;
15603;SDS011;7902;49.042;9.092;2023-11-18T12:59:04;28.63;;;6.57;;
15603;SDS011;7902;49.042;9.092;2023-11-18T13:01:34;12.57;;;2.40;;
15603;SDS011;7902;49.042;9.092;2023-11-18T13:04:04;13.57;;;2.87;;
15603;SDS011;7902;49.042;9.092;2023-11-18T13:06:30;23.60;;;3.23;;
15603;SDS011;7902;49.042;9.092;2023-11-18T13:08:56;14.80;;;2.03;;
15603;SDS011;7902;49.042;9.092;2023-11-18T13:11:23;16.07;;;4.47;;
15603;SDS011;7902;49.042;9.092;2023-11-18T13:13:52;14.20;;;2.90;;
15603;SDS011;7902;49.042;9.092;2023-11-18T13:16:19;15.50;;;3.43;;
15603;SDS011;7902;49.042;9.092;2023-11-18T13:18:45;13.47;;;2.10;;
15603;SDS011;7902;49.042;9.092;2023-11-18T13:21:18;13.20;;;1.80;;
15603;SDS011;7902;49.042;9.092;2023-11-18T13:23:46;12.83;;;2.03;;
15603;SDS011;7902;49.042;9.092;2023-11-18T13:26:15;15.37;;;2.20;;
15603;SDS011;7902;49.042;9.092;2023-11-18T13:28:42;15.17;;;2.80;;
15603;SDS011;7902;49.042;9.092;2023-11-18T13:31:11;12.43;;;1.90;;
15603;SDS011;7902;49.042;9.092;2023-11-18T13:33:39;12.97;;;1.93;;
15603;SDS011;7902;49.042;9.092;2023-11-18T13:36:08;16.87;;;1.90;;
15603;SDS011;7902;49.042;9.092;2023-11-18T13:38:38;11.50;;;1.70;;
15603;SDS011;7902;49.042;9.092;2023-11-18T13:41:05;16.53;;;2.57;;
15603;SDS011;7902;49.042;9.092;2023-11-18T13:43:43;25.23;;;2.40;;
15603;SDS011;7902;49.042;9.092;2023-11-18T13:46:11;13.50;;;2.03;;
15603;SDS011;7902;49.042;9.092;2023-11-18T13:48:39;12.67;;;1.60;;
15603;SDS011;7902;49.042;9.092;2023-11-18T13:51:09;16.60;;;1.97;;
15603;SDS011;7902;49.042;9.092;2023-11-18T13:53:41;16.90;;;2.00;;
15603;SDS011;7902;49.042;9.092;2023-11-18T13:56:09;14.40;;;1.90;;
15603;SDS011;7902;49.042;9.092;2023-11-18T13:58:36;13.50;;;1.80;;
15603;SDS011;7902;49.042;9.092;2023-11-18T14:01:06;21.70;;;2.50;;
15603;SDS011;7902;49.042;9.092;2023-11-18T14:03:36;19.20;;;2.33;;
15603;SDS011;7902;49.042;9.092;2023-11-18T14:06:06;13.17;;;2.20;;
15603;SDS011;7902;49.042;9.092;2023-11-18T14:08:38;16.33;;;2.20;;
15603;SDS011;7902;49.042;9.092;2023-11-18T14:11:05;15.83;;;2.40;;
15603;SDS011;7902;49.042;9.092;2023-11-18T14:13:31;17.17;;;2.93;;
15603;SDS011;7902;49.042;9.092;2023-11-18T14:16:00;16.93;;;4.20;;
15603;SDS011;7902;49.042;9.092;2023-11-18T14:18:27;32.83;;;4.67;;
15603;SDS011;7902;49.042;9.092;2023-11-18T14:20:54;24.90;;;3.30;;
15603;SDS011;7902;49.042;9.092;2023-11-18T14:23:20;17.00;;;2.40;;
15603;SDS011;7902;49.042;9.092;2023-11-18T14:25:47;14.90;;;1.63;;
15603;SDS011;7902;49.042;9.092;2023-11-18T14:28:14;15.87;;;1.90;;
15603;SDS011;7902;49.042;9.092;2023-11-18T14:30:40;20.17;;;2.70;;
15603;SDS011;7902;49.042;9.092;2023-11-18T14:33:07;18.57;;;2.23;;
15603;SDS011;7902;49.042;9.092;2023-11-18T14:35:33;19.57;;;2.70;;
15603;SDS011;7902;49.042;9.092;2023-11-18T14:38:00;24.63;;;6.40;;
15603;SDS011;7902;49.042;9.092;2023-11-18T14:40:29;17.77;;;4.20;;
15603;SDS011;7902;49.042;9.092;2023-11-18T14:42:55;55.37;;;20.00;;
15603;SDS011;7902;49.042;9.092;2023-11-18T14:45:21;34.40;;;11.50;;
15603;SDS011;7902;49.042;9.092;2023-11-18T14:47:47;54.77;;;22.50;;
15603;SDS011;7902;49.042;9.092;2023-11-18T14:50:14;37.77;;;15.70;;
15603;SDS011;7902;49.042;9.092;2023-11-18T14:52:44;21.20;;;4.97;;
15603;SDS011;7902;49.042;9.092;2023-11-18T14:55:17;14.00;;;2.37;;
15603;SDS011;7902;49.042;9.092;2023-11-18T14:57:44;18.30;;;2.70;;
15603;SDS011;7902;49.042;9.092;2023-11-18T15:00:11;16.40;;;2.10;;
15603;SDS011;7902;49.042;9.092;2023-11-18T15:02:53;13.80;;;2.40;;
15603;SDS011;7902;49.042;9.092;2023-11-18T15:05:20;15.63;;;1.93;;
15603;SDS011;7902;49.042;9.092;2023-11-18T15:07:51;19.03;;;3.00;;
15603;SDS011;7902;49.042;9.092;2023-11-18T15:10:19;14.57;;;2.30;;